createdAt,value
2023-02-13T00:00:57.919Z,22.20
2023-02-13T00:03:27.249Z,21.13
2023-02-13T00:05:54.395Z,22.33
2023-02-13T00:08:21.810Z,23.17
2023-02-13T00:10:49.694Z,23.37
2023-02-13T00:13:17.053Z,21.50
2023-02-13T00:15:44.297Z,22.03
2023-02-13T00:18:11.637Z,23.73
2023-02-13T00:20:38.614Z,22.63
2023-02-13T00:23:08.696Z,24.83
2023-02-13T00:25:38.838Z,24.63
2023-02-13T00:28:05.908Z,25.57
2023-02-13T00:30:36.044Z,27.17
2023-02-13T00:33:20.630Z,24.63
2023-02-13T00:36:15.782Z,27.27
2023-02-13T00:38:43.957Z,25.27
2023-02-13T00:41:14.151Z,26.30
2023-02-13T00:43:41.432Z,27.10
2023-02-13T00:46:09.595Z,22.43
2023-02-13T00:48:37.593Z,26.20
2023-02-13T00:51:05.668Z,26.00
2023-02-13T00:53:36.364Z,23.97
2023-02-13T00:56:04.086Z,25.73
2023-02-13T00:58:31.342Z,24.40
2023-02-13T01:00:59.180Z,26.63
2023-02-13T01:03:26.647Z,23.93
2023-02-13T01:05:54.043Z,24.00
2023-02-13T01:08:21.425Z,27.67
2023-02-13T01:10:49.480Z,25.20
2023-02-13T01:13:21.636Z,25.63
2023-02-13T01:15:52.727Z,22.20
2023-02-13T01:18:21.242Z,23.60
2023-02-13T01:20:59.312Z,23.23
2023-02-13T01:23:29.786Z,24.97
2023-02-13T01:25:59.104Z,25.43
2023-02-13T01:28:34.263Z,24.30
2023-02-13T01:31:04.141Z,26.40
2023-02-13T01:33:31.566Z,23.43
2023-02-13T01:36:02.002Z,23.23
2023-02-13T01:38:35.770Z,24.00
2023-02-13T01:41:03.338Z,25.73
2023-02-13T01:43:54.594Z,25.70
2023-02-13T01:46:33.353Z,25.30
2023-02-13T01:49:12.451Z,25.07
2023-02-13T01:51:43.576Z,24.17
2023-02-13T01:54:17.826Z,26.60
2023-02-13T01:56:49.273Z,24.30
2023-02-13T01:59:32.108Z,29.43
2023-02-13T02:02:00.945Z,28.57
2023-02-13T02:04:39.928Z,26.83
2023-02-13T02:07:26.371Z,27.30
2023-02-13T02:09:59.000Z,24.67
2023-02-13T02:12:37.480Z,26.97
2023-02-13T02:15:06.868Z,25.57
2023-02-13T02:17:36.758Z,31.63
2023-02-13T02:20:30.973Z,26.33
2023-02-13T02:23:30.587Z,25.40
2023-02-13T02:26:16.694Z,25.60
2023-02-13T02:29:08.313Z,27.63
2023-02-13T02:32:09.549Z,24.80
2023-02-13T02:34:56.759Z,27.67
2023-02-13T02:37:37.050Z,28.13
2023-02-13T02:40:23.211Z,26.10
2023-02-13T02:43:04.584Z,25.57
2023-02-13T02:45:54.055Z,27.03
2023-02-13T02:48:39.620Z,29.80
2023-02-13T02:51:18.188Z,29.33
2023-02-13T02:53:58.286Z,31.77
2023-02-13T02:56:27.594Z,26.77
2023-02-13T02:59:21.986Z,27.97
2023-02-13T03:02:08.912Z,29.00
2023-02-13T03:05:08.258Z,30.03
2023-02-13T03:07:35.498Z,26.43
2023-02-13T03:10:28.988Z,29.77
2023-02-13T03:13:21.622Z,27.77
2023-02-13T03:16:13.320Z,30.83
2023-02-13T03:19:03.852Z,29.53
2023-02-13T03:22:15.404Z,32.53
2023-02-13T03:25:35.838Z,32.53
2023-02-13T03:28:39.383Z,29.50
2023-02-13T03:31:27.509Z,28.87
2023-02-13T03:34:09.970Z,27.07
2023-02-13T03:37:16.655Z,29.83
2023-02-13T03:39:48.009Z,27.83
2023-02-13T03:42:20.647Z,30.03
2023-02-13T03:45:18.228Z,30.87
2023-02-13T03:47:47.243Z,31.87
2023-02-13T03:50:21.049Z,26.83
2023-02-13T03:52:56.077Z,32.63
2023-02-13T03:55:50.575Z,28.30
2023-02-13T03:58:42.111Z,29.37
2023-02-13T04:01:12.631Z,28.00
2023-02-13T04:04:11.550Z,27.27
2023-02-13T04:06:56.757Z,30.50
2023-02-13T04:09:28.064Z,28.27
2023-02-13T04:11:54.912Z,28.40
2023-02-13T04:14:47.941Z,28.63
2023-02-13T04:17:25.241Z,26.80
2023-02-13T04:19:52.845Z,27.40
2023-02-13T04:22:20.129Z,28.70
2023-02-13T04:24:48.734Z,27.70
2023-02-13T04:27:19.815Z,29.47
2023-02-13T04:29:46.918Z,30.90
2023-02-13T04:32:15.187Z,30.27
2023-02-13T04:34:42.505Z,27.67
2023-02-13T04:37:10.848Z,27.07
2023-02-13T04:39:40.164Z,27.13
2023-02-13T04:42:07.414Z,28.13
2023-02-13T04:44:34.623Z,29.07
2023-02-13T04:47:04.166Z,27.73
2023-02-13T04:49:31.400Z,27.47
2023-02-13T04:51:58.361Z,28.33
2023-02-13T04:54:32.946Z,28.50
2023-02-13T04:57:02.263Z,28.57
2023-02-13T04:59:29.558Z,28.27
2023-02-13T05:01:56.530Z,27.17
2023-02-13T05:04:23.609Z,25.60
2023-02-13T05:06:50.616Z,28.23
2023-02-13T05:09:20.277Z,25.90
2023-02-13T05:11:47.607Z,29.03
2023-02-13T05:14:14.668Z,26.90
2023-02-13T05:16:41.907Z,26.37
2023-02-13T05:19:09.404Z,25.83
2023-02-13T05:21:56.094Z,29.10
2023-02-13T05:24:26.745Z,26.00
2023-02-13T05:26:54.222Z,25.83
2023-02-13T05:29:25.746Z,26.43
2023-02-13T05:31:59.346Z,31.97
2023-02-13T05:34:29.540Z,28.87
2023-02-13T05:36:59.217Z,30.73
2023-02-13T05:39:26.570Z,30.17
2023-02-13T05:41:53.457Z,29.53
2023-02-13T05:44:22.852Z,32.13
2023-02-13T05:46:53.608Z,29.67
2023-02-13T05:49:20.746Z,28.93
2023-02-13T05:51:52.391Z,29.33
2023-02-13T05:54:21.832Z,25.80
2023-02-13T05:56:51.217Z,26.00
2023-02-13T05:59:23.945Z,27.70
2023-02-13T06:02:07.361Z,27.20
2023-02-13T06:04:37.403Z,24.47
2023-02-13T06:07:05.136Z,25.60
2023-02-13T06:09:39.148Z,25.40
2023-02-13T06:14:48.352Z,28.00
2023-02-13T06:19:58.855Z,26.23
2023-02-13T06:22:29.326Z,31.10
2023-02-13T06:24:56.847Z,28.07
2023-02-13T06:33:00.977Z,26.73
2023-02-13T06:35:39.319Z,30.53
2023-02-13T06:38:08.976Z,29.07
2023-02-13T06:40:40.150Z,26.87
2023-02-13T06:43:08.847Z,30.90
2023-02-13T06:45:47.566Z,29.43
2023-02-13T06:50:56.775Z,31.30
2023-02-13T06:53:27.098Z,28.87
2023-02-13T06:55:58.176Z,26.30
2023-02-13T06:58:26.854Z,27.53
2023-02-13T07:01:00.480Z,29.30
2023-02-13T07:03:40.022Z,30.20
2023-02-13T07:06:12.949Z,28.13
2023-02-13T07:08:40.305Z,24.67
2023-02-13T07:11:16.804Z,29.33
2023-02-13T07:13:47.099Z,26.93
2023-02-13T07:16:17.758Z,27.47
2023-02-13T07:19:01.935Z,26.83
2023-02-13T07:21:31.465Z,27.90
2023-02-13T07:23:58.934Z,27.13
2023-02-13T07:26:33.877Z,26.27
2023-02-13T07:29:11.991Z,25.17
2023-02-13T07:31:42.592Z,31.50
2023-02-13T07:34:10.227Z,25.47
2023-02-13T07:39:19.459Z,27.20
2023-02-13T07:44:37.485Z,24.57
2023-02-13T07:47:19.033Z,26.30
2023-02-13T07:50:16.602Z,23.87
2023-02-13T07:53:03.245Z,25.47
2023-02-13T07:55:39.126Z,22.33
2023-02-13T08:00:59.052Z,21.87
2023-02-13T08:03:25.987Z,26.00
2023-02-13T08:05:52.963Z,25.88
2023-02-13T08:08:19.890Z,27.57
2023-02-13T08:11:05.400Z,21.00
2023-02-13T08:13:32.729Z,23.73
2023-02-13T08:15:59.790Z,22.43
2023-02-13T08:18:26.675Z,25.47
2023-02-13T08:20:53.443Z,25.37
2023-02-13T08:23:20.276Z,19.60
2023-02-13T08:25:49.508Z,20.70
2023-02-13T08:28:17.232Z,22.00
2023-02-13T08:30:44.348Z,21.67
2023-02-13T08:33:11.272Z,22.80
2023-02-13T08:35:38.080Z,20.63
2023-02-13T08:38:05.859Z,19.83
2023-02-13T08:40:33.515Z,18.80
2023-02-13T08:43:05.286Z,18.57
2023-02-13T08:45:33.619Z,21.97
2023-02-13T08:48:01.476Z,19.87
2023-02-13T08:50:28.815Z,21.57
2023-02-13T08:52:55.701Z,19.67
2023-02-13T08:55:22.596Z,18.63
2023-02-13T08:57:49.536Z,21.63
2023-02-13T09:00:16.713Z,17.13
2023-02-13T09:02:43.518Z,19.13
2023-02-13T09:05:10.604Z,18.20
2023-02-13T09:07:37.548Z,19.20
2023-02-13T09:10:04.908Z,19.30
2023-02-13T09:12:31.713Z,17.80
2023-02-13T09:14:58.542Z,15.97
2023-02-13T09:17:25.431Z,18.03
2023-02-13T09:19:52.347Z,18.30
2023-02-13T09:22:19.280Z,16.73
2023-02-13T09:24:46.169Z,16.47
2023-02-13T09:27:14.072Z,17.17
2023-02-13T09:29:40.998Z,16.60
2023-02-13T09:32:07.974Z,19.03
2023-02-13T09:34:34.963Z,18.60
2023-02-13T09:37:01.821Z,17.40
2023-02-13T09:39:29.144Z,18.00
2023-02-13T09:41:57.066Z,18.23
2023-02-13T09:44:43.789Z,17.70
2023-02-13T09:47:31.658Z,18.00
2023-02-13T09:50:22.386Z,16.33
2023-02-13T09:52:52.290Z,16.77
2023-02-13T09:55:29.669Z,17.60
2023-02-13T09:58:20.690Z,17.85
2023-02-13T10:00:54.089Z,17.35
2023-02-13T10:03:29.840Z,17.10
2023-02-13T10:06:11.548Z,17.27
2023-02-13T10:08:56.810Z,17.27
2023-02-13T10:11:35.484Z,18.23
2023-02-13T10:14:32.792Z,19.58
2023-02-13T10:17:15.968Z,18.40
2023-02-13T10:19:57.135Z,18.40
2023-02-13T10:22:33.366Z,18.35
2023-02-13T10:25:06.571Z,18.15
2023-02-13T10:27:40.312Z,18.30
2023-02-13T10:30:24.316Z,18.10
2023-02-13T10:33:36.553Z,18.48
2023-02-13T10:36:24.476Z,19.17
2023-02-13T10:39:31.873Z,19.33
2023-02-13T10:42:22.734Z,19.98
2023-02-13T10:44:58.426Z,19.05
2023-02-13T10:47:44.234Z,25.45
2023-02-13T10:50:10.997Z,20.02
2023-02-13T10:52:44.057Z,19.63
2023-02-13T10:55:41.946Z,19.13
2023-02-13T10:58:38.338Z,17.92
2023-02-13T11:01:32.022Z,18.17
2023-02-13T11:04:15.198Z,17.17
2023-02-13T11:06:46.548Z,17.92
2023-02-13T11:09:14.117Z,18.02
2023-02-13T11:11:43.523Z,28.63
2023-02-13T11:14:15.438Z,18.97
2023-02-13T11:17:17.917Z,18.05
2023-02-13T11:19:54.035Z,17.73
2023-02-13T11:22:42.566Z,17.53
2023-02-13T11:25:30.161Z,17.20
2023-02-13T11:28:21.042Z,17.17
2023-02-13T11:30:49.132Z,15.80
2023-02-13T11:33:26.978Z,15.60
2023-02-13T11:36:23.661Z,15.80
2023-02-13T11:38:59.712Z,15.35
2023-02-13T11:41:26.968Z,15.30
2023-02-13T11:44:01.253Z,15.88
2023-02-13T11:46:48.118Z,14.60
2023-02-13T11:49:24.783Z,15.10
2023-02-13T11:51:56.646Z,14.77
2023-02-13T11:54:36.593Z,14.32
2023-02-13T11:57:36.530Z,13.60
2023-02-13T12:00:29.179Z,14.65
2023-02-13T12:02:56.143Z,14.02
2023-02-13T12:05:25.803Z,13.60
2023-02-13T12:08:00.052Z,13.90
2023-02-13T12:10:37.121Z,14.38
2023-02-13T12:13:36.914Z,13.93
2023-02-13T12:16:26.269Z,13.20
2023-02-13T12:18:56.278Z,13.50
2023-02-13T12:21:43.055Z,13.52
2023-02-13T12:24:12.733Z,12.52
2023-02-13T12:26:48.760Z,12.98
2023-02-13T12:29:24.346Z,12.25
2023-02-13T12:32:09.957Z,11.23
2023-02-13T12:34:55.248Z,12.27
2023-02-13T12:37:43.815Z,15.88
2023-02-13T12:40:44.224Z,11.37
2023-02-13T12:43:48.126Z,11.10
2023-02-13T12:46:20.863Z,11.20
2023-02-13T12:49:26.008Z,11.80
2023-02-13T12:52:40.613Z,11.60
2023-02-13T12:55:37.786Z,11.85
2023-02-13T12:58:23.207Z,11.77
2023-02-13T13:01:04.384Z,12.02
2023-02-13T13:03:56.236Z,10.38
2023-02-13T13:06:38.173Z,10.63
2023-02-13T13:09:44.136Z,11.03
2023-02-13T13:12:10.990Z,11.48
2023-02-13T13:14:54.585Z,11.13
2023-02-13T13:17:36.187Z,11.18
2023-02-13T13:20:06.532Z,11.45
2023-02-13T13:22:35.713Z,12.20
2023-02-13T13:25:36.186Z,11.40
2023-02-13T13:28:11.311Z,11.43
2023-02-13T13:30:39.778Z,11.60
2023-02-13T13:33:28.208Z,11.57
2023-02-13T13:36:15.310Z,11.73
2023-02-13T13:38:57.027Z,11.48
2023-02-13T13:41:40.993Z,12.77
2023-02-13T13:44:48.834Z,13.00
2023-02-13T13:47:44.762Z,13.63
2023-02-13T13:50:24.246Z,13.70
2023-02-13T13:53:06.254Z,14.25
2023-02-13T13:55:51.632Z,14.10
2023-02-13T13:58:38.469Z,14.18
2023-02-13T14:01:23.994Z,14.18
2023-02-13T14:03:59.829Z,13.98
2023-02-13T14:06:28.354Z,14.43
2023-02-13T14:08:58.690Z,15.10
2023-02-13T14:11:34.621Z,15.35
2023-02-13T14:14:22.217Z,14.30
2023-02-13T14:16:49.156Z,14.55
2023-02-13T14:19:33.051Z,13.95
2023-02-13T14:24:36.095Z,14.40
2023-02-13T14:27:06.183Z,15.32
2023-02-13T14:29:34.629Z,14.38
2023-02-13T14:32:29.243Z,14.87
2023-02-13T14:35:17.111Z,15.82
2023-02-13T14:38:02.089Z,14.90
2023-02-13T14:40:41.248Z,15.00
2023-02-13T14:43:14.183Z,15.60
2023-02-13T14:45:53.270Z,14.57
2023-02-13T14:48:22.665Z,14.50
2023-02-13T14:50:53.546Z,15.10
2023-02-13T14:53:52.457Z,14.67
2023-02-13T14:56:23.022Z,14.60
2023-02-13T14:59:10.046Z,14.43
2023-02-13T15:01:48.377Z,15.25
2023-02-13T15:04:38.907Z,14.80
2023-02-13T15:07:13.419Z,15.18
2023-02-13T15:09:41.543Z,15.50
2023-02-13T15:12:44.206Z,14.97
2023-02-13T15:15:26.275Z,15.43
2023-02-13T15:18:04.733Z,14.95
2023-02-13T15:20:34.873Z,15.38
2023-02-13T15:23:02.311Z,15.20
2023-02-13T15:25:40.334Z,14.77
2023-02-13T15:28:17.192Z,15.15
2023-02-13T15:30:56.522Z,15.48
2023-02-13T15:33:26.802Z,15.98
2023-02-13T15:36:27.932Z,14.93
2023-02-13T15:39:09.664Z,15.07
2023-02-13T16:00:49.840Z,15.13
2023-02-13T16:03:18.671Z,15.60
2023-02-13T16:24:39.915Z,16.00
2023-02-13T17:05:38.871Z,22.27
2023-02-13T17:11:54.840Z,24.47
2023-02-13T17:14:22.004Z,21.67
2023-02-13T17:20:44.460Z,25.57
2023-02-13T17:23:23.867Z,22.47
2023-02-13T17:30:54.205Z,19.93
2023-02-13T17:33:22.927Z,22.17
2023-02-13T17:35:50.383Z,21.27
2023-02-13T17:38:17.897Z,18.17
2023-02-13T17:40:45.762Z,21.23
2023-02-13T17:43:18.125Z,24.53
2023-02-13T17:45:47.052Z,21.33
2023-02-13T17:48:14.498Z,21.33
2023-02-13T17:50:41.916Z,23.17
2023-02-13T17:53:32.761Z,24.75
2023-02-13T17:55:59.887Z,27.13
2023-02-13T17:58:27.259Z,27.63
2023-02-13T18:00:54.600Z,26.27
2023-02-13T18:03:22.730Z,25.17
2023-02-13T18:05:50.904Z,23.00
2023-02-13T18:08:18.255Z,20.77
2023-02-13T18:10:45.634Z,20.37
2023-02-13T18:13:15.037Z,20.57
2023-02-13T18:18:30.497Z,18.77
2023-02-13T18:21:02.546Z,19.03
2023-02-13T18:26:56.214Z,19.47
2023-02-13T18:29:23.499Z,19.30
2023-02-13T18:40:43.172Z,21.93
2023-02-13T18:58:11.235Z,49.23
2023-02-13T19:13:00.276Z,28.08
2023-02-13T19:15:27.514Z,25.57
2023-02-13T19:20:50.918Z,28.08
2023-02-13T19:23:18.260Z,25.63
2023-02-13T19:25:46.676Z,26.27
2023-02-13T19:28:36.920Z,24.50
2023-02-13T19:39:48.874Z,28.40
2023-02-13T19:59:03.025Z,29.08
2023-02-13T20:04:14.035Z,30.95
2023-02-13T20:47:16.147Z,24.83
2023-02-13T20:49:43.207Z,27.63
2023-02-13T20:52:10.349Z,25.48
2023-02-13T20:54:37.499Z,29.80
2023-02-13T20:57:04.553Z,28.02
2023-02-13T20:59:34.687Z,28.02
2023-02-13T21:02:01.799Z,27.13
2023-02-13T21:07:09.146Z,27.05
2023-02-13T21:09:37.609Z,27.50
2023-02-13T21:12:06.953Z,27.60
2023-02-13T21:14:34.129Z,30.40
2023-02-13T21:17:01.146Z,30.00
2023-02-13T21:19:28.032Z,27.45
2023-02-13T21:21:54.964Z,29.63
2023-02-13T21:24:23.019Z,31.05
2023-02-13T21:26:52.492Z,29.63
2023-02-13T21:29:20.058Z,31.20
2023-02-13T21:34:31.444Z,31.17
2023-02-13T21:36:58.620Z,32.10
2023-02-13T21:39:26.253Z,34.90
2023-02-13T21:42:05.374Z,32.47
2023-02-13T21:44:32.556Z,29.40
2023-02-13T21:47:02.032Z,35.17
2023-02-13T21:49:29.137Z,36.47
2023-02-13T21:51:59.415Z,33.13
2023-02-13T21:54:29.022Z,31.70
